Time;durP1;ratioP1;P1;durP2;ratioP2;P2;SDS_P1;SDS_P2;PMS_P1;PMS_P2;Temp;Humidity;BMP_temperature;BMP_pressure;BME280_temperature;BME280_humidity;BME280_pressure;Samples;Min_cycle;Max_cycle;Signal;HPM_P1;HPM_P2
2022/07/04 00:00:06;;;;;;;;;2.00;1.00;;;;;21.89;56.56;101876.06;5059420;28;45449;-71
2022/07/04 00:02:32;;;;;;;;;1.00;1.00;;;;;21.94;55.95;101873.56;5061946;28;45543;-71
2022/07/04 00:04:57;;;;;;;;;4.00;2.67;;;;;22.05;55.19;101875.84;5060714;28;46524;-71
2022/07/04 00:07:22;;;;;;;;;1.00;1.00;;;;;22.02;54.63;101876.22;5078442;28;45363;-71
2022/07/04 00:09:48;;;;;;;;;1.33;1.33;;;;;21.97;55.92;101877.88;5060486;28;45311;-71
2022/07/04 00:12:13;;;;;;;;;2.00;2.00;;;;;21.90;55.97;101876.91;5061822;28;45342;-71
2022/07/04 00:14:39;;;;;;;;;2.00;2.00;;;;;21.81;55.75;101878.94;5060254;28;46509;-71
2022/07/04 00:17:04;;;;;;;;;1.00;1.00;;;;;21.86;54.88;101879.19;5062630;28;45636;-70
2022/07/04 00:19:30;;;;;;;;;1.00;0.00;;;;;21.81;55.14;101878.94;5061342;28;45325;-71
2022/07/04 00:21:55;;;;;;;;;1.00;1.00;;;;;21.81;54.78;101883.63;5056613;28;45372;-71
2022/07/04 00:24:21;;;;;;;;;1.00;1.00;;;;;21.72;55.92;101878.19;5059127;28;46732;-71
2022/07/04 00:26:46;;;;;;;;;3.00;1.00;;;;;21.73;55.72;101885.44;5060691;28;45408;-72
2022/07/04 00:29:11;;;;;;;;;4.33;2.00;;;;;21.71;54.73;101876.47;5059561;28;45452;-71
2022/07/04 00:31:37;;;;;;;;;2.00;1.33;;;;;21.64;56.14;101883.81;5060472;28;45557;-71
2022/07/04 00:34:02;;;;;;;;;2.33;1.00;;;;;21.57;55.54;101879.25;5061823;28;46492;-69
2022/07/04 00:36:28;;;;;;;;;2.00;1.67;;;;;21.52;56.81;101879.84;5058839;28;45395;-71
2022/07/04 00:38:53;;;;;;;;;1.00;1.00;;;;;21.52;56.49;101879.84;5062575;28;45312;-70
2022/07/04 00:41:19;;;;;;;;;2.00;2.00;;;;;21.49;56.47;101883.00;5057736;28;45438;-70
2022/07/04 00:43:59;;;;;;;;;3.00;3.00;;;;;21.41;56.32;101880.31;5078072;27;48385;-70
2022/07/04 00:46:24;;;;;;;;;2.33;1.33;;;;;21.47;55.52;101887.88;5056103;28;45390;-70
2022/07/04 00:48:50;;;;;;;;;1.00;1.00;;;;;21.46;55.86;101882.53;5062339;28;45485;-70
2022/07/04 00:51:15;;;;;;;;;2.00;2.00;;;;;21.34;56.37;101885.75;5056867;28;45251;-70
2022/07/04 00:53:40;;;;;;;;;1.00;1.00;;;;;21.31;57.18;101882.53;5062106;28;45569;-70
2022/07/04 00:56:06;;;;;;;;;1.00;1.00;;;;;21.33;56.33;101891.50;5057233;28;45405;-70
2022/07/04 00:58:32;;;;;;;;;1.00;1.00;;;;;21.26;56.62;101874.81;5061551;28;45737;-70
2022/07/04 01:00:57;;;;;;;;;1.00;1.00;;;;;21.23;56.87;101888.16;5076368;28;45550;-70
2022/07/04 01:03:23;;;;;;;;;5.00;1.67;;;;;21.18;57.76;101887.88;5065421;28;45373;-69
2022/07/04 01:05:49;;;;;;;;;1.67;1.33;;;;;21.15;56.89;101883.56;5064015;28;45200;-70
2022/07/04 01:08:15;;;;;;;;;1.00;1.00;;;;;21.13;58.10;101893.06;5063549;28;45335;-70
2022/07/04 01:10:40;;;;;;;;;0.33;0.33;;;;;21.13;57.77;101895.84;5059586;28;48204;-69
2022/07/04 01:13:05;;;;;;;;;1.33;0.33;;;;;21.07;58.02;101889.16;5063536;28;45411;-70
2022/07/04 01:15:31;;;;;;;;;5.00;1.67;;;;;20.98;57.76;101880.09;5063283;28;45262;-69
2022/07/04 01:17:56;;;;;;;;;1.00;1.00;;;;;21.03;58.43;101889.75;5065274;28;45230;-70
2022/07/04 01:20:22;;;;;;;;;1.00;1.00;;;;;20.99;58.51;101889.25;5060279;28;45414;-70
2022/07/04 01:22:47;;;;;;;;;1.00;1.00;;;;;21.01;57.74;101886.31;5065166;28;46103;-70
2022/07/04 01:25:14;;;;;;;;;5.00;3.00;;;;;21.00;58.63;101896.50;5062193;28;45340;-70
2022/07/04 01:27:39;;;;;;;;;2.00;2.00;;;;;21.01;57.99;101891.84;5062360;28;45327;-70
2022/07/04 01:30:05;;;;;;;;;1.33;1.33;;;;;21.04;57.63;101885.94;5059790;28;45585;-70
2022/07/04 01:32:30;;;;;;;;;1.33;1.33;;;;;21.07;57.97;101888.31;5065389;28;46722;-70
2022/07/04 01:34:56;;;;;;;;;1.00;1.00;;;;;21.04;57.92;101891.47;5063230;28;45345;-70
2022/07/04 01:37:21;;;;;;;;;1.33;1.33;;;;;21.08;58.47;101887.28;5062836;28;45557;-70
2022/07/04 01:39:46;;;;;;;;;1.67;1.00;;;;;21.02;58.28;101883.38;5063364;28;45385;-70
2022/07/04 01:42:12;;;;;;;;;2.67;2.67;;;;;20.92;58.69;101885.53;5063281;28;46410;-70
2022/07/04 01:44:37;;;;;;;;;2.33;2.00;;;;;20.93;57.96;101892.78;5062901;28;45395;-70
2022/07/04 01:47:02;;;;;;;;;2.00;2.00;;;;;20.87;59.01;101883.34;5065238;28;45453;-70
2022/07/04 01:49:28;;;;;;;;;1.00;1.00;;;;;20.81;59.89;101875.81;5063626;28;45578;-69
2022/07/04 01:51:53;;;;;;;;;1.67;1.67;;;;;20.76;59.76;101878.25;5061946;28;45678;-70
2022/07/04 01:54:19;;;;;;;;;3.00;1.33;;;;;20.72;60.28;101889.88;5063279;28;45457;-70
2022/07/04 01:56:45;;;;;;;;;1.67;1.67;;;;;20.53;61.15;101894.00;5060668;28;45291;-70
2022/07/04 01:59:11;;;;;;;;;3.33;2.00;;;;;20.48;61.39;101885.44;5064448;28;45233;-69
2022/07/04 02:01:37;;;;;;;;;4.00;2.33;;;;;20.44;61.34;101895.16;5060053;28;46362;-70
2022/07/04 02:04:04;;;;;;;;;1.67;1.67;;;;;20.47;61.10;101889.22;5064802;28;45246;-70
2022/07/04 02:06:31;;;;;;;;;0.67;0.67;;;;;20.42;60.79;101889.81;5062291;28;45314;-70
2022/07/04 02:09:15;;;;;;;;;1.67;1.67;;;;;20.42;61.03;101887.03;5065164;28;45436;-70
2022/07/04 02:14:25;;;;;;;;;0.00;0.00;;;;;20.28;59.33;101867.63;5056277;28;45473;-70
2022/07/04 02:16:50;;;;;;;;;1.67;1.67;;;;;20.38;60.38;101884.84;5059252;28;45251;-69
2022/07/04 02:19:16;;;;;;;;;2.67;0.67;;;;;20.37;59.07;101875.72;5078127;28;45475;-69
2022/07/04 02:21:41;;;;;;;;;1.67;1.67;;;;;20.40;60.56;101879.97;5059826;28;46489;-69
2022/07/04 02:24:07;;;;;;;;;0.67;0.67;;;;;20.33;59.05;101874.34;5063817;28;45425;-69
2022/07/04 02:26:32;;;;;;;;;0.67;0.67;;;;;20.41;58.99;101876.19;5059948;28;45436;-70
2022/07/04 02:28:57;;;;;;;;;1.00;1.00;;;;;20.41;59.22;101871.50;5064939;28;45318;-69
2022/07/04 02:31:23;;;;;;;;;1.33;0.00;;;;;20.37;59.64;101872.09;5056216;28;48146;-69
2022/07/04 02:33:48;;;;;;;;;0.67;0.67;;;;;20.36;60.44;101868.47;5064652;28;45277;-69
2022/07/04 02:36:14;;;;;;;;;0.33;0.33;;;;;20.33;60.91;101876.22;5057714;28;45298;-69
2022/07/04 02:38:39;;;;;;;;;3.00;2.00;;;;;20.20;61.82;101871.31;5064798;28;45480;-70
2022/07/04 02:41:05;;;;;;;;;2.67;1.00;;;;;20.15;61.64;101882.91;5056072;28;46966;-69
2022/07/04 02:43:30;;;;;;;;;2.67;2.67;;;;;20.02;62.65;101881.78;5064241;28;45244;-69
2022/07/04 02:45:55;;;;;;;;;3.33;2.67;;;;;19.96;62.69;101883.38;5056850;28;45727;-69
2022/07/04 02:48:21;;;;;;;;;3.50;3.50;;;;;19.96;63.37;101880.63;5064629;28;45557;-70
2022/07/04 02:50:46;;;;;;;;;4.33;3.67;;;;;19.88;62.98;101882.56;5053362;28;47403;-70
2022/07/04 02:53:12;;;;;;;;;4.00;4.00;;;;;19.97;63.14;101887.00;5062064;28;45347;-69
2022/07/04 02:55:37;;;;;;;;;3.67;2.67;;;;;20.02;62.45;101879.88;5062070;28;45230;-71
2022/07/04 02:58:02;;;;;;;;;3.67;3.00;;;;;20.05;62.28;101879.53;5064389;28;45329;-71
2022/07/04 03:00:28;;;;;;;;;6.67;6.67;;;;;20.11;62.81;101888.97;5061250;28;46449;-69
2022/07/04 03:02:54;;;;;;;;;3.67;2.67;;;;;20.01;63.16;101894.75;5063479;28;45426;-69
2022/07/04 03:05:19;;;;;;;;;2.67;2.33;;;;;19.98;63.51;101891.47;5059882;28;45508;-69
2022/07/04 03:07:45;;;;;;;;;3.00;2.33;;;;;19.90;63.26;101897.91;5063112;28;45403;-71
2022/07/04 03:10:10;;;;;;;;;3.67;2.67;;;;;19.86;64.77;101895.69;5061049;28;45610;-69
2022/07/04 03:12:36;;;;;;;;;2.67;2.67;;;;;19.80;64.19;101897.25;5062509;28;45795;-71
2022/07/04 03:15:01;;;;;;;;;3.33;2.33;;;;;19.82;63.98;101900.69;5061373;28;45486;-72
2022/07/04 03:17:28;;;;;;;;;5.33;3.00;;;;;19.86;64.04;101899.31;5063959;28;45566;-69
2022/07/04 03:19:53;;;;;;;;;3.00;3.00;;;;;19.75;64.99;101905.22;5059645;28;46178;-69
2022/07/04 03:22:18;;;;;;;;;3.33;3.33;;;;;19.76;65.18;101905.03;5061536;28;45234;-69
2022/07/04 03:24:44;;;;;;;;;3.67;3.67;;;;;19.73;65.55;101913.66;5059399;28;45449;-69
2022/07/04 03:27:09;;;;;;;;;3.67;3.67;;;;;19.75;65.28;101910.72;5062511;28;45478;-69
2022/07/04 03:29:35;;;;;;;;;4.00;3.33;;;;;19.73;64.31;101918.31;5060924;28;46495;-69
2022/07/04 03:32:00;;;;;;;;;2.00;2.00;;;;;19.67;64.62;101908.00;5050846;28;45556;-69
2022/07/04 03:34:26;;;;;;;;;1.67;1.67;;;;;19.67;64.66;101914.38;5076265;28;45501;-70
2022/07/04 03:36:51;;;;;;;;;2.67;1.67;;;;;19.66;64.75;101912.66;5059121;28;45316;-69
2022/07/04 03:39:16;;;;;;;;;2.33;2.33;;;;;19.59;64.92;101910.81;5061553;28;45319;-70
2022/07/04 03:41:42;;;;;;;;;2.67;2.00;;;;;19.54;65.17;101907.72;5058368;28;45469;-69
2022/07/04 03:44:07;;;;;;;;;2.00;2.00;;;;;19.52;64.72;101905.16;5062284;28;45406;-70
2022/07/04 03:46:33;;;;;;;;;1.33;1.33;;;;;19.65;64.49;101916.47;5058823;28;45594;-70
2022/07/04 03:48:59;;;;;;;;;1.33;1.33;;;;;19.56;64.89;101912.03;5061660;28;45455;-69
2022/07/04 03:51:24;;;;;;;;;2.00;2.00;;;;;19.63;64.02;101906.66;5056255;28;45456;-70
2022/07/04 03:53:50;;;;;;;;;2.00;2.00;;;;;19.64;64.28;101897.38;5063162;28;45293;-70
2022/07/04 03:56:15;;;;;;;;;4.00;4.00;;;;;19.62;64.77;101904.94;5061146;28;45475;-71
2022/07/04 03:58:48;;;;;;;;;2.00;2.00;;;;;19.62;65.14;101902.19;5063164;28;45595;-70
2022/07/04 04:01:13;;;;;;;;;3.33;3.33;;;;;19.58;64.99;101893.41;5060122;28;45693;-70
2022/07/04 04:06:22;;;;;;;;;3.00;3.00;;;;;19.69;64.02;101895.78;5060702;28;45238;-70
2022/07/04 04:08:48;;;;;;;;;3.33;3.33;;;;;19.71;64.17;101901.13;5062656;28;45402;-70
2022/07/04 04:11:13;;;;;;;;;4.00;2.67;;;;;19.83;63.57;101903.28;5059432;28;48356;-70
2022/07/04 04:13:38;;;;;;;;;2.00;2.00;;;;;19.84;63.33;101904.16;5062716;28;45408;-70
2022/07/04 04:16:05;;;;;;;;;7.00;7.00;;;;;19.90;62.45;101900.66;5058667;28;45364;-70
2022/07/04 04:18:31;;;;;;;;;3.00;2.33;;;;;19.92;61.92;101901.34;5061924;28;45378;-70
2022/07/04 04:20:56;;;;;;;;;2.33;2.33;;;;;19.95;62.35;101906.47;5056681;28;45553;-71
2022/07/04 04:23:21;;;;;;;;;5.33;3.33;;;;;19.97;62.68;101909.06;5062478;28;45340;-70
2022/07/04 04:25:47;;;;;;;;;1.67;1.67;;;;;19.83;62.99;101908.78;5057073;28;45483;-71
2022/07/04 04:28:12;;;;;;;;;1.67;1.67;;;;;19.91;63.25;101920.81;5062374;28;46111;-70
2022/07/04 04:30:37;;;;;;;;;3.00;3.00;;;;;19.92;61.83;101919.78;5055171;28;45464;-71
2022/07/04 04:33:03;;;;;;;;;3.67;2.00;;;;;19.98;62.97;101932.84;5062462;28;45421;-71
2022/07/04 04:35:28;;;;;;;;;2.00;2.00;;;;;19.92;63.74;101928.06;5059876;28;45528;-71
2022/07/04 04:37:53;;;;;;;;;2.00;2.00;;;;;19.85;64.34;101938.97;5065833;28;46640;-71
2022/07/04 04:40:19;;;;;;;;;1.67;1.67;;;;;19.74;64.04;101920.03;5061517;28;45550;-71
2022/07/04 04:42:44;;;;;;;;;5.33;2.00;;;;;19.75;64.00;101921.75;5066180;28;45168;-71
2022/07/04 04:45:10;;;;;;;;;4.00;3.33;;;;;19.73;64.68;101926.59;5063099;28;45141;-70
2022/07/04 04:47:35;;;;;;;;;5.67;2.00;;;;;19.76;64.32;101920.72;5065833;28;46425;-70
2022/07/04 04:50:01;;;;;;;;;3.00;1.67;;;;;19.74;64.55;101922.78;5060112;28;45350;-70
2022/07/04 04:52:26;;;;;;;;;3.00;2.00;;;;;19.69;64.56;101917.84;5065669;28;45277;-69
2022/07/04 04:54:52;;;;;;;;;1.00;1.00;;;;;19.80;64.17;101924.84;5058839;28;45473;-69
2022/07/04 04:57:17;;;;;;;;;6.00;3.00;;;;;19.86;63.57;101918.63;5063478;28;45634;-70
2022/07/04 04:59:42;;;;;;;;;3.67;2.33;;;;;19.68;65.14;101934.56;5060273;28;45235;-70
2022/07/04 05:02:08;;;;;;;;;4.67;4.67;;;;;19.69;65.42;101919.72;5080906;27;45311;-70
2022/07/04 05:04:33;;;;;;;;;3.00;3.00;;;;;19.83;65.01;101928.09;5064126;28;45202;-70
2022/07/04 05:06:58;;;;;;;;;3.33;3.00;;;;;19.98;64.00;101928.19;5063769;28;48485;-71
2022/07/04 05:09:24;;;;;;;;;5.67;4.00;;;;;19.87;64.63;101925.81;5062873;28;45616;-70
2022/07/04 05:11:49;;;;;;;;;4.00;4.00;;;;;19.92;64.63;101926.16;5064986;28;45376;-69
2022/07/04 05:14:15;;;;;;;;;5.33;5.00;;;;;20.06;64.92;101930.91;5064403;28;45520;-69
2022/07/04 05:16:40;;;;;;;;;5.00;2.33;;;;;20.33;63.63;101921.25;5064298;28;45428;-70
2022/07/04 05:19:06;;;;;;;;;12.75;10.75;;;;;20.48;62.84;101924.09;5064707;28;45350;-70
2022/07/04 05:21:31;;;;;;;;;7.33;5.33;;;;;20.69;61.55;101926.16;5061348;28;45804;-70
2022/07/04 05:23:57;;;;;;;;;7.00;5.00;;;;;20.77;62.13;101928.84;5065510;28;45343;-70
2022/07/04 05:26:22;;;;;;;;;7.33;5.00;;;;;20.87;61.09;101922.03;5061060;28;47305;-71
2022/07/04 05:28:48;;;;;;;;;3.33;3.33;;;;;20.90;60.86;101921.63;5063837;28;45513;-70
2022/07/04 05:31:13;;;;;;;;;7.33;6.00;;;;;21.01;60.38;101922.22;5055405;28;45471;-70
2022/07/04 05:33:39;;;;;;;;;9.67;5.67;;;;;21.04;60.52;101924.63;5065316;28;45263;-71
2022/07/04 05:36:04;;;;;;;;;4.67;3.33;;;;;21.12;60.02;101916.22;5056731;28;45389;-70
2022/07/04 05:38:29;;;;;;;;;4.00;4.00;;;;;21.43;59.29;101925.25;5063277;28;45236;-70
2022/07/04 05:40:55;;;;;;;;;3.00;3.00;;;;;22.65;56.13;101915.19;5059321;28;45381;-70
2022/07/04 05:43:21;;;;;;;;;3.67;1.00;;;;;24.08;50.79;101921.03;5062903;28;45358;-70
2022/07/04 05:45:48;;;;;;;;;4.33;4.00;;;;;25.14;47.30;101915.41;5055759;28;46691;-71
2022/07/04 05:48:13;;;;;;;;;8.00;5.33;;;;;24.33;48.48;101916.63;5063695;28;45524;-70
2022/07/04 05:50:39;;;;;;;;;7.00;7.00;;;;;23.41;51.12;101922.63;5057459;28;45469;-71
2022/07/04 05:53:04;;;;;;;;;5.33;5.33;;;;;23.05;52.64;101920.03;5064693;28;45395;-71
2022/07/04 05:55:29;;;;;;;;;7.00;5.00;;;;;22.94;53.04;101909.50;5059581;28;45381;-71
2022/07/04 05:57:55;;;;;;;;;4.67;3.33;;;;;22.61;54.42;101919.41;5063719;28;45369;-71
2022/07/04 06:00:20;;;;;;;;;8.00;8.00;;;;;22.41;55.54;101920.09;5059202;28;48058;-71
2022/07/04 06:02:46;;;;;;;;;8.00;6.33;;;;;22.37;55.60;101926.22;5062822;28;45624;-70
2022/07/04 06:05:11;;;;;;;;;10.00;8.00;;;;;22.48;55.35;101909.94;5060805;28;45247;-71
2022/07/04 06:07:37;;;;;;;;;5.00;5.00;;;;;22.83;54.58;101926.69;5055829;28;45381;-70
2022/07/04 06:10:03;;;;;;;;;8.67;6.33;;;;;24.53;50.01;101920.31;5060423;28;45424;-69
2022/07/04 06:12:29;;;;;;;;;7.33;5.33;;;;;25.75;46.53;101917.00;5055118;28;45451;-70
2022/07/04 06:14:54;;;;;;;;;13.67;10.00;;;;;25.85;45.01;101911.81;5060421;28;45536;-70
2022/07/04 06:17:21;;;;;;;;;8.00;6.00;;;;;24.91;46.62;101925.28;5063086;28;45389;-69
2022/07/04 06:19:46;;;;;;;;;4.00;4.00;;;;;23.97;49.42;101933.59;5058421;28;45393;-72
2022/07/04 06:22:12;;;;;;;;;6.00;3.33;;;;;23.71;50.50;101925.16;5063931;28;45442;-70
2022/07/04 06:24:38;;;;;;;;;7.00;5.00;;;;;23.43;51.44;101926.06;5059659;28;47128;-70
2022/07/04 06:27:04;;;;;;;;;7.33;5.00;;;;;23.18;51.54;101933.13;5062677;28;45357;-70
2022/07/04 06:29:29;;;;;;;;;6.00;4.33;;;;;23.24;51.13;101935.09;5059285;28;45812;-70
2022/07/04 06:31:54;;;;;;;;;4.67;4.67;;;;;23.39;51.13;101935.81;5060355;28;45485;-71
2022/07/04 06:37:04;;;;;;;;;7.67;7.00;;;;;23.15;52.26;101928.00;5059981;28;45472;-70
2022/07/04 06:39:29;;;;;;;;;6.00;4.00;;;;;23.13;52.74;101930.97;5061352;28;45370;-68
2022/07/04 06:41:55;;;;;;;;;8.33;5.00;;;;;23.24;51.86;101927.63;5061437;28;45335;-69
2022/07/04 06:44:20;;;;;;;;;5.00;4.67;;;;;23.09;52.36;101931.56;5059307;28;46477;-69
2022/07/04 06:46:46;;;;;;;;;8.00;5.00;;;;;23.38;52.02;101924.97;5058461;28;45301;-69
2022/07/04 06:49:11;;;;;;;;;4.33;3.33;;;;;23.55;50.73;101923.56;5062155;28;45500;-69
2022/07/04 06:51:37;;;;;;;;;7.67;5.33;;;;;23.64;50.50;101931.53;5058157;28;45287;-69
2022/07/04 06:54:02;;;;;;;;;6.00;4.00;;;;;23.50;51.03;101926.13;5062322;28;45381;-69
2022/07/04 06:56:28;;;;;;;;;4.00;4.00;;;;;23.22;51.48;101932.53;5057947;28;45521;-69
2022/07/04 06:58:53;;;;;;;;;2.00;2.00;;;;;23.30;50.45;101932.34;5062538;28;45290;-69
2022/07/04 07:01:18;;;;;;;;;2.67;2.67;;;;;23.41;50.42;101935.63;5059832;28;45265;-68
2022/07/04 07:03:44;;;;;;;;;1.33;1.33;;;;;23.58;50.45;101939.84;5062559;28;46466;-69
2022/07/04 07:06:10;;;;;;;;;3.67;3.33;;;;;23.63;49.87;101934.50;5068279;28;45399;-69
2022/07/04 07:08:35;;;;;;;;;3.67;1.67;;;;;23.27;50.23;101938.31;5060931;28;45257;-69
2022/07/04 07:11:12;;;;;;;;;8.00;5.00;;;;;23.41;50.82;101952.28;5053311;28;45203;-68
2022/07/04 07:13:41;;;;;;;;;4.67;4.67;;;;;23.62;50.32;101947.53;5061962;28;47383;-69
2022/07/04 07:16:06;;;;;;;;;7.33;5.67;;;;;23.75;49.78;101955.06;5053218;28;45377;-69
2022/07/04 07:18:32;;;;;;;;;2.67;2.67;;;;;23.61;49.32;101948.59;5062654;28;45366;-69
2022/07/04 07:20:57;;;;;;;;;4.00;4.00;;;;;23.37;49.96;101943.53;5059324;28;45326;-69
2022/07/04 07:23:22;;;;;;;;;1.00;1.00;;;;;23.51;50.59;101955.59;5077172;28;48374;-69
2022/07/04 07:25:48;;;;;;;;;3.00;3.00;;;;;23.67;49.66;101958.84;5060669;28;45294;-69
2022/07/04 07:28:13;;;;;;;;;5.67;5.33;;;;;23.91;48.96;101949.16;5062389;28;45892;-69
2022/07/04 07:30:39;;;;;;;;;3.00;3.00;;;;;24.10;48.43;101950.31;5053602;28;45582;-69
2022/07/04 07:33:04;;;;;;;;;6.00;4.00;;;;;24.35;46.93;101947.84;5062542;28;45352;-68
2022/07/04 07:35:29;;;;;;;;;3.67;3.67;;;;;24.27;46.01;101950.81;5057079;28;45300;-68
2022/07/04 07:37:55;;;;;;;;;3.00;3.00;;;;;24.11;46.03;101953.94;5078292;27;45471;-67
2022/07/04 07:40:20;;;;;;;;;8.33;6.67;;;;;24.06;46.96;101944.31;5054484;28;45287;-67
2022/07/04 07:42:45;;;;;;;;;1.00;1.00;;;;;24.05;45.70;101942.59;5077018;27;47196;-68
2022/07/04 07:45:11;;;;;;;;;4.00;2.67;;;;;24.18;45.27;101949.28;5055014;28;45217;-69
2022/07/04 07:47:36;;;;;;;;;4.00;3.00;;;;;24.36;45.11;101947.63;5061836;28;45322;-68
2022/07/04 07:50:03;;;;;;;;;4.00;4.00;;;;;24.18;45.48;101940.94;5056969;28;45285;-68
2022/07/04 07:52:29;;;;;;;;;5.00;5.00;;;;;23.90;46.99;101941.03;5059310;28;46955;-68
2022/07/04 07:54:54;;;;;;;;;4.00;4.00;;;;;24.23;46.78;101943.97;5055036;28;45432;-68
2022/07/04 07:57:20;;;;;;;;;5.00;5.00;;;;;24.43;45.75;101939.31;5077467;28;45419;-69
2022/07/04 07:59:45;;;;;;;;;5.00;5.00;;;;;24.71;45.42;101936.34;5059538;28;45573;-69
2022/07/04 08:02:10;;;;;;;;;5.67;4.00;;;;;24.87;45.08;101935.06;5061389;28;45400;-68
2022/07/04 08:04:37;;;;;;;;;5.00;3.33;;;;;24.84;44.56;101937.22;5059055;28;45485;-68
2022/07/04 08:07:10;;;;;;;;;5.33;2.33;;;;;25.13;44.00;101935.94;5054276;28;45389;-68
2022/07/04 08:09:36;;;;;;;;;2.00;2.00;;;;;25.35;42.61;101930.97;5058432;28;45275;-68
2022/07/04 08:12:03;;;;;;;;;1.00;1.00;;;;;25.45;42.49;101917.50;5053596;28;45401;-68
2022/07/04 08:14:29;;;;;;;;;2.00;2.00;;;;;25.58;42.37;101931.38;5059961;28;45296;-68
2022/07/04 08:16:55;;;;;;;;;5.33;2.67;;;;;25.61;41.58;101932.91;5060094;28;45548;-69
2022/07/04 08:19:21;;;;;;;;;6.00;5.00;;;;;25.54;41.99;101932.88;5059505;28;45474;-68
2022/07/04 08:21:49;;;;;;;;;5.67;2.67;;;;;25.76;41.61;101925.13;5060457;28;45072;-68
2022/07/04 08:24:15;;;;;;;;;3.33;1.67;;;;;25.90;39.67;101931.50;5060129;28;45375;-68
2022/07/04 08:26:40;;;;;;;;;5.33;2.00;;;;;25.98;40.30;101922.91;5059436;28;45265;-68
2022/07/04 08:29:06;;;;;;;;;4.33;2.33;;;;;25.87;41.21;101904.06;5061937;28;45470;-68
2022/07/04 08:31:31;;;;;;;;;2.00;2.00;;;;;25.84;40.61;101921.25;5072132;28;48131;-69
2022/07/04 08:33:56;;;;;;;;;6.00;4.67;;;;;25.69;40.67;101923.44;5061239;28;45376;-69
2022/07/04 08:36:22;;;;;;;;;4.67;4.67;;;;;25.98;41.44;101923.75;5055970;28;45545;-68
2022/07/04 08:38:47;;;;;;;;;2.67;2.67;;;;;26.20;40.51;101927.06;5060389;28;45444;-68
2022/07/04 08:41:16;;;;;;;;;4.67;4.00;;;;;26.34;39.54;101925.06;5055503;28;45467;-68
2022/07/04 08:43:41;;;;;;;;;3.00;3.00;;;;;26.48;39.53;101921.13;5056866;28;45409;-69
2022/07/04 08:46:10;;;;;;;;;5.00;2.00;;;;;26.50;39.54;101915.34;5054435;28;46416;-68
2022/07/04 08:48:37;;;;;;;;;6.00;3.00;;;;;26.05;38.72;101922.84;5061217;28;45416;-69
2022/07/04 08:51:16;;;;;;;;;3.33;3.00;;;;;26.02;39.78;101907.44;5051210;28;45369;-68
2022/07/04 08:53:52;;;;;;;;;3.67;2.00;;;;;26.27;40.04;101911.19;5057621;28;45187;-69
2022/07/04 08:59:04;;;;;;;;;3.33;2.00;;;;;25.97;38.23;101907.25;5048391;28;45188;-68
2022/07/04 09:01:31;;;;;;;;;2.33;2.33;;;;;25.97;38.93;101910.91;5056533;28;45538;-68
2022/07/04 09:03:56;;;;;;;;;4.00;4.00;;;;;26.13;39.01;101908.69;5060666;28;45406;-68
2022/07/04 09:06:23;;;;;;;;;3.00;3.00;;;;;26.25;38.30;101904.97;5058594;28;45412;-69
2022/07/04 09:08:49;;;;;;;;;3.00;3.00;;;;;26.21;38.29;101900.06;5061108;28;45247;-68
2022/07/04 09:11:14;;;;;;;;;2.00;2.00;;;;;26.42;38.00;101916.47;5057865;28;45472;-69
2022/07/04 09:13:40;;;;;;;;;3.33;3.00;;;;;26.52;38.34;101907.59;5060626;28;45357;-68
2022/07/04 09:16:06;;;;;;;;;4.00;2.00;;;;;26.96;37.63;101898.22;5054932;28;45370;-68
2022/07/04 09:18:34;;;;;;;;;3.67;3.00;;;;;27.23;37.03;101893.25;5075922;28;45315;-68
2022/07/04 09:21:03;;;;;;;;;3.00;1.00;;;;;27.31;36.41;101891.03;5052235;28;45368;-68
2022/07/04 09:23:31;;;;;;;;;2.33;2.33;;;;;27.32;37.09;101897.47;5064127;28;45353;-68
2022/07/04 09:26:21;;;;;;;;;3.33;1.67;;;;;27.33;35.97;101893.56;5060910;28;45425;-68
2022/07/04 09:28:56;;;;;;;;;2.00;2.00;;;;;26.83;35.61;101889.97;5055193;28;45461;-68
2022/07/04 09:31:24;;;;;;;;;3.00;3.00;;;;;26.97;35.05;101897.16;5057204;28;45473;-68
2022/07/04 09:33:58;;;;;;;;;4.00;2.67;;;;;27.03;34.41;101894.28;5063444;28;45338;-68
2022/07/04 09:36:29;;;;;;;;;5.00;4.00;;;;;27.56;34.62;101895.69;5057662;28;45494;-68
2022/07/04 09:39:05;;;;;;;;;2.33;2.00;;;;;27.29;32.53;101895.13;5064872;28;45376;-68
2022/07/04 09:41:35;;;;;;;;;2.00;2.00;;;;;26.92;33.00;101889.47;5060721;28;45525;-68
2022/07/04 09:44:06;;;;;;;;;1.00;1.00;;;;;27.42;33.53;101883.81;5063800;28;45283;-68
2022/07/04 09:46:33;;;;;;;;;4.33;2.67;;;;;27.63;32.77;101883.38;5061535;28;45433;-69
2022/07/04 09:48:58;;;;;;;;;3.00;2.00;;;;;27.72;32.78;101886.69;5064045;28;45350;-68
2022/07/04 09:51:44;;;;;;;;;1.33;1.33;;;;;27.91;32.70;101884.75;5060071;28;46236;-68
2022/07/04 09:54:19;;;;;;;;;2.00;2.00;;;;;28.20;32.30;101890.34;5063697;28;46242;-68
2022/07/04 09:56:47;;;;;;;;;4.00;3.00;;;;;28.21;31.78;101891.19;5060072;28;45468;-68
2022/07/04 09:59:12;;;;;;;;;2.67;1.00;;;;;27.77;31.66;101890.47;5078875;28;45406;-68
2022/07/04 10:01:39;;;;;;;;;2.00;2.00;;;;;28.12;31.72;101887.03;5058226;28;46856;-68
2022/07/04 10:04:05;;;;;;;;;2.00;2.00;;;;;28.16;30.08;101893.84;5063700;28;45353;-68
2022/07/04 10:06:32;;;;;;;;;2.00;2.00;;;;;28.42;30.08;101893.44;5053372;28;45466;-68
2022/07/04 10:09:07;;;;;;;;;4.33;2.67;;;;;28.64;31.67;101893.75;5064193;28;45262;-69
2022/07/04 10:11:33;;;;;;;;;2.33;2.33;;;;;28.96;30.80;101885.91;5060911;28;45456;-69
2022/07/04 10:13:59;;;;;;;;;1.67;1.67;;;;;29.04;30.75;101871.56;5062083;28;46022;-69
2022/07/04 10:16:25;;;;;;;;;3.67;3.00;;;;;28.94;29.97;101890.88;5060829;28;45537;-69
2022/07/04 10:18:51;;;;;;;;;3.67;1.33;;;;;28.61;29.76;101883.06;5065078;28;45547;-70
2022/07/04 10:21:17;;;;;;;;;1.00;1.00;;;;;28.88;30.00;101875.09;5060249;28;45248;-68
2022/07/04 10:23:44;;;;;;;;;1.00;0.00;;;;;29.04;29.04;101874.34;5060940;28;45235;-69
2022/07/04 10:26:11;;;;;;;;;4.00;2.00;;;;;28.91;30.70;101874.59;5057236;28;45547;-69
2022/07/04 10:28:37;;;;;;;;;4.33;4.00;;;;;28.92;30.37;101870.72;5064587;28;45409;-69
2022/07/04 10:31:03;;;;;;;;;3.00;3.00;;;;;29.37;29.99;101876.53;5055853;28;47479;-69
2022/07/04 10:33:29;;;;;;;;;2.00;2.00;;;;;29.34;30.74;101879.81;5078972;28;45276;-69
2022/07/04 10:36:03;;;;;;;;;5.00;2.00;;;;;28.60;30.27;101879.41;5055583;28;45274;-69
2022/07/04 10:38:52;;;;;;;;;4.33;3.00;;;;;29.23;30.44;101867.53;5062713;28;45315;-69
2022/07/04 10:41:21;;;;;;;;;4.00;4.00;;;;;29.69;28.57;101882.56;5052996;28;45826;-69
2022/07/04 10:44:09;;;;;;;;;3.33;3.00;;;;;30.11;28.39;101869.16;5056830;28;45348;-69
2022/07/04 10:46:45;;;;;;;;;1.33;1.33;;;;;30.89;28.57;101866.38;5057134;28;45253;-69
2022/07/04 10:49:14;;;;;;;;;2.00;2.00;;;;;31.27;28.38;101867.53;5061767;28;45790;-70
2022/07/04 10:51:47;;;;;;;;;2.33;2.00;;;;;31.52;26.83;101870.69;5058733;28;45540;-69
2022/07/04 10:54:19;;;;;;;;;2.33;2.00;;;;;31.49;26.55;101859.16;5062410;28;45287;-68
2022/07/04 10:56:55;;;;;;;;;2.00;0.33;;;;;30.75;27.98;101859.41;5056344;28;45283;-69
2022/07/04 10:59:29;;;;;;;;;3.33;2.00;;;;;30.84;28.76;101855.06;5050988;28;45266;-69
2022/07/04 11:02:03;;;;;;;;;2.33;2.33;;;;;31.31;27.34;101863.09;5061151;28;47491;-69
2022/07/04 11:04:47;;;;;;;;;2.00;2.00;;;;;31.21;27.29;101860.13;5068565;27;45520;-70
2022/07/04 11:07:14;;;;;;;;;3.00;2.67;;;;;31.36;27.02;101856.69;5055819;28;45413;-69
2022/07/04 11:09:39;;;;;;;;;1.67;1.67;;;;;31.55;27.61;101850.50;5060839;28;45508;-70
2022/07/04 11:12:06;;;;;;;;;3.33;2.00;;;;;31.57;26.74;101858.66;5059506;28;45577;-67
2022/07/04 11:14:36;;;;;;;;;3.33;3.00;;;;;31.30;26.96;101855.78;5061279;28;45425;-68
2022/07/04 11:17:04;;;;;;;;;2.00;2.00;;;;;31.81;26.56;101854.50;5058187;28;45394;-69
2022/07/04 11:19:29;;;;;;;;;0.33;0.33;;;;;32.15;25.96;101852.38;5061562;28;45295;-69
2022/07/04 11:21:55;;;;;;;;;2.67;2.67;;;;;32.82;24.91;101849.91;5061052;28;48025;-69
2022/07/04 11:24:21;;;;;;;;;4.00;2.00;;;;;33.10;25.05;101854.31;5061417;28;48397;-69
2022/07/04 11:26:47;;;;;;;;;2.67;2.67;;;;;33.46;24.19;101840.50;5057081;28;45318;-69
2022/07/04 11:29:13;;;;;;;;;1.00;1.00;;;;;33.00;24.46;101848.66;5062629;28;45595;-69
2022/07/04 11:31:44;;;;;;;;;5.00;4.00;;;;;32.34;25.67;101861.28;5057435;28;46316;-69